createdAt,value
2022-11-10T00:00:24.168Z,7.2
2022-11-10T00:01:24.201Z,7.2
2022-11-10T00:02:24.198Z,7.2
2022-11-10T00:03:24.452Z,7.2
2022-11-10T00:04:24.200Z,7.2
2022-11-10T00:05:24.179Z,7.2
2022-11-10T00:06:24.203Z,7.2
2022-11-10T00:07:24.186Z,7.2
2022-11-10T00:08:24.189Z,7.2
2022-11-10T00:09:24.182Z,7.2
2022-11-10T00:10:24.201Z,7.2
2022-11-10T00:11:24.189Z,7.2
2022-11-10T00:12:24.178Z,7.2
2022-11-10T00:13:24.473Z,7.2
2022-11-10T00:14:24.192Z,7.2
2022-11-10T00:15:24.193Z,7.2
2022-11-10T00:16:24.291Z,7.2
2022-11-10T00:17:24.203Z,7.2
2022-11-10T00:18:24.268Z,7.2
2022-11-10T00:19:24.240Z,7.2
2022-11-10T00:20:24.279Z,7.2
2022-11-10T00:21:24.324Z,7.2
2022-11-10T00:22:26.021Z,7.2
2022-11-10T00:23:24.553Z,7.2
2022-11-10T00:24:24.183Z,7.2
2022-11-10T00:25:24.182Z,7.2
2022-11-10T00:26:24.205Z,7.2
2022-11-10T00:27:24.216Z,7.2
2022-11-10T00:28:24.195Z,7.2
2022-11-10T00:29:24.193Z,7.2
2022-11-10T00:30:24.201Z,7.2
2022-11-10T00:31:24.242Z,7.2
2022-11-10T00:32:24.192Z,7.1
2022-11-10T00:33:24.512Z,7.2
2022-11-10T00:34:24.188Z,7.1
2022-11-10T00:35:24.186Z,7.1
2022-11-10T00:36:24.220Z,7.1
2022-11-10T00:37:24.191Z,7.1
2022-11-10T00:38:24.192Z,7.1
2022-11-10T00:39:24.201Z,7.1
2022-11-10T00:40:24.195Z,7.1
2022-11-10T00:41:24.210Z,7.2
2022-11-10T00:42:24.194Z,7.2
2022-11-10T00:43:26.557Z,7.2
2022-11-10T00:44:24.188Z,7.2
2022-11-10T00:45:24.181Z,7.2
2022-11-10T00:46:24.192Z,7.2
2022-11-10T00:47:24.176Z,7.2
2022-11-10T00:48:24.206Z,7.2
2022-11-10T00:49:24.187Z,7.1
2022-11-10T00:50:24.191Z,7.1
2022-11-10T00:51:24.222Z,7.1
2022-11-10T00:52:24.195Z,7.1
2022-11-10T00:53:24.547Z,7.1
2022-11-10T00:54:24.212Z,7.1
2022-11-10T00:55:24.282Z,7.1
2022-11-10T00:56:24.362Z,7.1
2022-11-10T00:57:24.448Z,7.1
2022-11-10T00:58:24.258Z,7.1
2022-11-10T00:59:24.216Z,7.1
2022-11-10T01:00:24.223Z,7
2022-11-10T01:01:24.360Z,7.1
2022-11-10T01:02:24.194Z,7
2022-11-10T01:03:24.492Z,7
2022-11-10T01:04:24.193Z,7
2022-11-10T01:05:24.204Z,7
2022-11-10T01:06:24.209Z,7
2022-11-10T01:07:24.187Z,7
2022-11-10T01:08:24.209Z,7
2022-11-10T01:09:24.201Z,7
2022-11-10T01:10:24.203Z,7
2022-11-10T01:11:24.206Z,7
2022-11-10T01:12:24.208Z,7
2022-11-10T01:13:24.444Z,7
2022-11-10T01:14:24.180Z,7
2022-11-10T01:15:27.549Z,7
2022-11-10T01:16:24.216Z,6.9
2022-11-10T01:17:24.215Z,6.9
2022-11-10T01:18:24.200Z,7
2022-11-10T01:19:24.198Z,7
2022-11-10T01:20:24.224Z,6.9
2022-11-10T01:21:24.245Z,6.9
2022-11-10T01:22:24.244Z,6.9
2022-11-10T01:23:24.514Z,7
2022-11-10T01:24:24.209Z,7
2022-11-10T01:25:24.195Z,7
2022-11-10T01:26:24.209Z,7
2022-11-10T01:27:24.209Z,7
2022-11-10T01:28:24.196Z,7
2022-11-10T01:30:24.180Z,7
2022-11-10T01:31:24.213Z,7
2022-11-10T01:32:24.185Z,7
2022-11-10T01:33:24.554Z,7
2022-11-10T01:34:24.192Z,7
2022-11-10T01:35:24.202Z,7
2022-11-10T01:36:24.197Z,7
2022-11-10T01:37:24.188Z,7
2022-11-10T01:38:24.204Z,7
2022-11-10T01:39:24.196Z,7
2022-11-10T01:40:24.255Z,7
2022-11-10T01:41:24.206Z,7
2022-11-10T01:42:24.197Z,7
2022-11-10T01:43:24.510Z,7
2022-11-10T01:44:24.198Z,7
2022-11-10T01:45:24.226Z,7
2022-11-10T01:46:24.201Z,7
2022-11-10T01:47:24.185Z,7
2022-11-10T01:48:24.198Z,7
2022-11-10T01:49:24.229Z,7
2022-11-10T01:50:24.190Z,7
2022-11-10T01:51:24.209Z,7
2022-11-10T01:52:24.176Z,7
2022-11-10T01:53:24.418Z,7
2022-11-10T01:54:24.195Z,7
2022-11-10T01:55:24.206Z,7
2022-11-10T01:56:24.225Z,7
2022-11-10T01:57:24.185Z,7
2022-11-10T01:58:24.186Z,7
2022-11-10T01:59:24.219Z,7
2022-11-10T02:00:24.192Z,7
2022-11-10T02:01:24.189Z,7
2022-11-10T02:02:24.195Z,7
2022-11-10T02:03:24.552Z,7
2022-11-10T02:04:24.204Z,7
2022-11-10T02:05:24.204Z,7
2022-11-10T02:06:24.214Z,7
2022-11-10T02:07:24.201Z,7
2022-11-10T02:08:24.205Z,7
2022-11-10T02:09:24.182Z,7
2022-11-10T02:10:24.211Z,7
2022-11-10T02:11:24.209Z,7
2022-11-10T02:12:24.190Z,7
2022-11-10T02:13:24.464Z,7
2022-11-10T02:14:24.215Z,7
2022-11-10T02:15:24.209Z,7
2022-11-10T02:16:24.232Z,7
2022-11-10T02:17:24.189Z,7
2022-11-10T02:18:24.189Z,7
2022-11-10T02:19:24.201Z,7
2022-11-10T02:20:24.191Z,7
2022-11-10T02:21:24.225Z,7
2022-11-10T02:22:24.214Z,7
2022-11-10T02:23:24.394Z,7
2022-11-10T02:24:24.435Z,7
2022-11-10T02:25:24.194Z,7
2022-11-10T02:26:24.211Z,7
2022-11-10T02:27:24.203Z,7
2022-11-10T02:28:24.203Z,7
2022-11-10T02:29:24.210Z,7
2022-11-10T02:30:27.636Z,7
2022-11-10T02:31:24.215Z,7
2022-11-10T02:32:24.343Z,7
2022-11-10T02:33:24.569Z,7
2022-11-10T02:34:24.196Z,7
2022-11-10T02:35:24.196Z,7
2022-11-10T02:36:24.214Z,7
2022-11-10T02:37:24.200Z,7
2022-11-10T02:38:24.206Z,7
2022-11-10T02:39:24.193Z,7
2022-11-10T02:40:24.200Z,7
2022-11-10T02:41:24.345Z,7
2022-11-10T02:42:24.204Z,7
2022-11-10T02:43:24.439Z,7
2022-11-10T02:44:24.205Z,7
2022-11-10T02:45:24.207Z,7
2022-11-10T02:46:24.216Z,7
2022-11-10T02:47:24.223Z,7
2022-11-10T02:48:24.200Z,7
2022-11-10T02:49:24.189Z,7
2022-11-10T02:50:24.195Z,7
2022-11-10T02:51:24.203Z,7
2022-11-10T02:52:24.197Z,7
2022-11-10T02:53:24.623Z,6.9
2022-11-10T02:54:24.198Z,7
2022-11-10T02:55:24.202Z,7
2022-11-10T02:56:24.210Z,7
2022-11-10T02:57:24.199Z,7
2022-11-10T02:58:24.195Z,7
2022-11-10T02:59:24.197Z,7
2022-11-10T03:00:24.201Z,6.9
2022-11-10T03:01:24.251Z,6.9
2022-11-10T03:02:26.303Z,7
2022-11-10T03:03:24.540Z,6.9
2022-11-10T03:04:24.234Z,6.9
2022-11-10T03:05:24.201Z,6.9
2022-11-10T03:06:24.220Z,6.9
2022-11-10T03:07:24.211Z,6.9
2022-11-10T03:08:24.203Z,6.9
2022-11-10T03:09:24.216Z,6.9
2022-11-10T03:10:24.205Z,6.9
2022-11-10T03:11:28.066Z,6.9
2022-11-10T03:12:24.197Z,6.9
2022-11-10T03:13:24.523Z,6.9
2022-11-10T03:14:24.202Z,6.9
2022-11-10T03:15:24.205Z,6.9
2022-11-10T03:16:24.197Z,6.9
2022-11-10T03:17:24.196Z,6.9
2022-11-10T03:18:24.221Z,6.9
2022-11-10T03:19:24.204Z,6.9
2022-11-10T03:20:24.199Z,7
2022-11-10T03:21:24.226Z,7
2022-11-10T03:22:24.199Z,7
2022-11-10T03:23:24.498Z,7
2022-11-10T03:24:24.198Z,6.9
2022-11-10T03:25:24.206Z,6.9
2022-11-10T03:26:24.248Z,6.9
2022-11-10T03:27:24.217Z,6.9
2022-11-10T03:28:24.212Z,6.9
2022-11-10T03:29:24.205Z,6.9
2022-11-10T03:30:24.260Z,6.9
2022-11-10T03:31:24.221Z,7
2022-11-10T03:32:24.187Z,6.9
2022-11-10T03:33:24.792Z,6.9
2022-11-10T03:34:28.113Z,6.9
2022-11-10T03:35:24.231Z,6.9
2022-11-10T03:36:24.227Z,6.9
2022-11-10T03:37:24.216Z,6.9
2022-11-10T03:38:24.221Z,7
2022-11-10T03:39:24.193Z,7
2022-11-10T03:40:24.211Z,6.9
2022-11-10T03:41:24.272Z,6.9
2022-11-10T03:42:24.196Z,6.9
2022-11-10T03:43:24.590Z,6.9
2022-11-10T03:44:24.201Z,6.9
2022-11-10T03:45:24.217Z,6.9
2022-11-10T03:46:24.263Z,6.9
2022-11-10T03:47:24.195Z,6.9
2022-11-10T03:48:24.200Z,6.9
2022-11-10T03:49:24.211Z,6.9
2022-11-10T03:50:24.203Z,6.9
2022-11-10T03:51:24.206Z,6.9
2022-11-10T03:52:24.199Z,6.9
2022-11-10T03:53:24.561Z,6.9
2022-11-10T03:54:24.205Z,6.9
2022-11-10T03:55:24.199Z,6.9
2022-11-10T03:56:24.222Z,6.9
2022-11-10T03:57:24.212Z,6.9
2022-11-10T03:58:24.196Z,6.9
2022-11-10T03:59:24.199Z,6.9
2022-11-10T04:00:24.204Z,6.9
2022-11-10T04:01:24.276Z,6.9
2022-11-10T04:02:24.197Z,6.9
2022-11-10T04:03:24.661Z,6.9
2022-11-10T04:04:24.214Z,6.9
2022-11-10T04:05:24.206Z,6.9
2022-11-10T04:06:24.220Z,6.9
2022-11-10T04:07:24.197Z,6.9
2022-11-10T04:08:24.205Z,6.8
2022-11-10T04:09:24.218Z,6.9
2022-11-10T04:10:24.196Z,6.9
2022-11-10T04:11:24.228Z,6.9
2022-11-10T04:12:25.130Z,6.9
2022-11-10T04:13:24.566Z,6.9
2022-11-10T04:14:24.202Z,6.9
2022-11-10T04:15:24.210Z,6.9
2022-11-10T04:16:24.220Z,6.9
2022-11-10T04:17:24.190Z,6.9
2022-11-10T04:18:24.227Z,6.9
2022-11-10T04:19:24.214Z,6.9
2022-11-10T04:20:24.243Z,6.9
2022-11-10T04:21:24.216Z,6.9
2022-11-10T04:22:24.302Z,6.9
2022-11-10T04:23:24.565Z,6.9
2022-11-10T04:24:24.204Z,6.9
2022-11-10T04:25:24.218Z,6.9
2022-11-10T04:26:24.209Z,6.9
2022-11-10T04:27:24.204Z,6.9
2022-11-10T04:28:24.199Z,6.9
2022-11-10T04:29:24.224Z,6.9
2022-11-10T04:30:24.207Z,6.9
2022-11-10T04:31:24.214Z,6.9
2022-11-10T04:32:24.222Z,6.9
2022-11-10T04:33:24.513Z,6.9
2022-11-10T04:34:24.197Z,6.8
2022-11-10T04:35:24.206Z,6.9
2022-11-10T04:36:24.225Z,6.9
2022-11-10T04:37:24.206Z,6.9
2022-11-10T04:38:24.204Z,6.9
2022-11-10T04:39:24.202Z,6.9
2022-11-10T04:40:24.198Z,6.9
2022-11-10T04:41:24.243Z,6.9
2022-11-10T04:42:24.231Z,6.9
2022-11-10T04:43:24.666Z,6.9
2022-11-10T04:44:24.236Z,6.8
2022-11-10T04:45:24.213Z,6.9
2022-11-10T04:46:24.220Z,6.8
2022-11-10T04:47:24.209Z,6.8
2022-11-10T04:48:24.215Z,6.8
2022-11-10T04:49:24.204Z,6.8
2022-11-10T04:50:24.204Z,6.8
2022-11-10T04:51:24.360Z,6.8
2022-11-10T04:52:24.191Z,6.8
2022-11-10T04:53:24.607Z,6.9
2022-11-10T04:54:24.213Z,6.9
2022-11-10T04:55:24.226Z,6.9
2022-11-10T04:56:24.212Z,6.9
2022-11-10T04:57:24.206Z,6.9
2022-11-10T04:58:24.209Z,6.9
2022-11-10T04:59:24.221Z,6.9
2022-11-10T05:00:24.207Z,6.9
2022-11-10T05:01:24.272Z,6.9
2022-11-10T05:02:24.204Z,6.9
2022-11-10T05:03:24.481Z,6.9
2022-11-10T05:04:24.209Z,6.9
2022-11-10T05:05:24.209Z,6.9
2022-11-10T05:06:24.216Z,6.9
2022-11-10T05:07:24.207Z,6.9
2022-11-10T05:08:24.211Z,6.9
2022-11-10T05:09:24.212Z,6.9
2022-11-10T05:10:24.267Z,6.9
2022-11-10T05:11:24.218Z,6.9
2022-11-10T05:12:24.211Z,6.9
2022-11-10T05:13:24.484Z,6.8
2022-11-10T05:14:24.225Z,6.8
2022-11-10T05:15:24.238Z,6.8
2022-11-10T05:16:24.230Z,6.9
2022-11-10T05:17:24.206Z,6.9
2022-11-10T05:18:24.211Z,6.8
2022-11-10T05:19:24.214Z,6.9
2022-11-10T05:20:24.207Z,6.9
2022-11-10T05:21:24.212Z,6.9
2022-11-10T05:22:24.232Z,6.9
2022-11-10T05:23:24.534Z,6.9
2022-11-10T05:24:24.201Z,6.9
2022-11-10T05:25:24.196Z,6.8
2022-11-10T05:26:24.243Z,6.9
2022-11-10T05:27:24.202Z,6.8
2022-11-10T05:28:24.210Z,6.8
2022-11-10T05:29:24.219Z,6.8
2022-11-10T05:30:24.209Z,6.9
2022-11-10T05:31:24.225Z,6.9
2022-11-10T05:32:24.215Z,6.9
2022-11-10T05:33:24.606Z,6.8
2022-11-10T05:34:24.211Z,6.9
2022-11-10T05:35:24.207Z,6.9
2022-11-10T05:36:24.227Z,6.8
2022-11-10T05:37:24.216Z,6.8
2022-11-10T05:38:24.206Z,6.8
2022-11-10T05:39:24.208Z,6.8
2022-11-10T05:40:24.203Z,6.8
2022-11-10T05:41:24.218Z,6.9
2022-11-10T05:42:24.207Z,6.8
2022-11-10T05:43:24.625Z,6.8
2022-11-10T05:44:24.220Z,6.8
2022-11-10T05:45:24.222Z,6.8
2022-11-10T05:46:24.219Z,6.8
2022-11-10T05:47:24.220Z,6.8
2022-11-10T05:48:24.207Z,6.8
2022-11-10T05:49:24.211Z,6.8
2022-11-10T05:50:24.198Z,6.8
2022-11-10T05:51:24.236Z,6.8
2022-11-10T05:52:24.204Z,6.8
2022-11-10T05:53:24.659Z,6.8
2022-11-10T05:54:24.203Z,6.7
2022-11-10T05:55:24.211Z,6.8
2022-11-10T05:56:24.222Z,6.8
2022-11-10T05:57:24.200Z,6.8
2022-11-10T05:58:24.209Z,6.8
2022-11-10T05:59:24.228Z,6.8
2022-11-10T06:00:24.215Z,6.8
2022-11-10T06:01:24.215Z,6.8
2022-11-10T06:02:24.211Z,6.8
2022-11-10T06:03:24.603Z,6.8
2022-11-10T06:04:24.213Z,6.8
2022-11-10T06:05:29.710Z,6.8
2022-11-10T06:06:24.223Z,6.8
2022-11-10T06:07:24.210Z,6.8
2022-11-10T06:08:24.202Z,6.8
2022-11-10T06:09:24.201Z,6.8
2022-11-10T06:10:24.217Z,6.8
2022-11-10T06:11:24.224Z,6.8
2022-11-10T06:12:24.203Z,6.8
2022-11-10T06:13:24.518Z,6.8
2022-11-10T06:14:24.232Z,6.8
2022-11-10T06:15:24.220Z,6.8
2022-11-10T06:16:24.226Z,6.8
2022-11-10T06:17:24.207Z,6.8
2022-11-10T06:18:24.209Z,6.8
2022-11-10T06:19:24.214Z,6.8
2022-11-10T06:20:24.229Z,6.8
2022-11-10T06:21:24.224Z,6.8
2022-11-10T06:22:24.209Z,6.8
2022-11-10T06:23:24.662Z,6.8
2022-11-10T06:24:24.245Z,6.8
2022-11-10T06:25:24.208Z,6.8
2022-11-10T06:26:24.220Z,6.8
2022-11-10T06:27:24.214Z,6.8
2022-11-10T06:28:24.224Z,6.8
2022-11-10T06:29:26.817Z,6.8
2022-11-10T06:30:24.197Z,6.8
2022-11-10T06:31:24.241Z,6.8
2022-11-10T06:32:24.212Z,6.8
2022-11-10T06:33:24.524Z,6.8
2022-11-10T06:34:24.208Z,6.8
2022-11-10T06:35:24.219Z,6.7
2022-11-10T06:36:24.227Z,6.8
2022-11-10T06:37:24.203Z,6.8
2022-11-10T06:38:24.217Z,6.8
2022-11-10T06:39:24.218Z,6.8
2022-11-10T06:40:24.219Z,6.8
2022-11-10T06:41:25.560Z,6.8
2022-11-10T06:42:24.280Z,6.8
2022-11-10T06:43:24.537Z,6.8
2022-11-10T06:44:24.228Z,6.8
2022-11-10T06:45:24.214Z,6.8
2022-11-10T06:46:24.226Z,6.8
2022-11-10T06:47:24.221Z,6.8
2022-11-10T06:48:24.210Z,6.8
2022-11-10T06:49:24.219Z,6.7
2022-11-10T06:50:24.215Z,6.7
2022-11-10T06:51:24.214Z,6.7
2022-11-10T06:52:24.218Z,6.8
2022-11-10T06:53:26.823Z,6.7
2022-11-10T06:54:24.249Z,6.7
2022-11-10T06:55:24.245Z,6.7
2022-11-10T06:56:24.269Z,6.7
2022-11-10T06:57:24.207Z,6.7
2022-11-10T06:58:24.211Z,6.7
2022-11-10T06:59:24.220Z,6.7
2022-11-10T07:00:24.199Z,6.7
2022-11-10T07:01:24.233Z,6.7
2022-11-10T07:02:24.214Z,6.7
2022-11-10T07:03:24.627Z,6.7
2022-11-10T07:04:24.202Z,6.7
2022-11-10T07:05:24.209Z,6.8
2022-11-10T07:06:24.218Z,6.8
2022-11-10T07:07:24.252Z,6.8
2022-11-10T07:08:24.211Z,6.8
2022-11-10T07:09:24.213Z,6.8
2022-11-10T07:10:24.210Z,6.8
2022-11-10T07:11:24.220Z,6.8
2022-11-10T07:12:24.211Z,6.8
2022-11-10T07:13:24.669Z,6.8
2022-11-10T07:14:24.210Z,6.8
2022-11-10T07:15:24.209Z,6.8
2022-11-10T07:16:24.694Z,6.8
2022-11-10T07:17:24.206Z,6.8
2022-11-10T07:18:24.220Z,6.8
2022-11-10T07:19:24.231Z,6.8
2022-11-10T07:20:24.202Z,6.8
2022-11-10T07:21:24.325Z,6.9
2022-11-10T07:22:24.220Z,6.9
2022-11-10T07:23:24.653Z,6.9
2022-11-10T07:24:24.210Z,6.9
2022-11-10T07:25:24.221Z,6.9
2022-11-10T07:26:24.248Z,6.9
2022-11-10T07:27:24.208Z,6.8
2022-11-10T07:28:28.218Z,6.8
2022-11-10T07:29:24.232Z,6.9
2022-11-10T07:30:24.216Z,6.9
2022-11-10T07:31:24.216Z,6.9
2022-11-10T07:32:24.212Z,6.9
2022-11-10T07:33:24.710Z,6.9
2022-11-10T07:34:24.210Z,6.9
2022-11-10T07:35:24.203Z,6.9
2022-11-10T07:36:24.221Z,6.9
2022-11-10T07:37:24.215Z,6.9
2022-11-10T07:38:24.226Z,6.9
2022-11-10T07:39:24.208Z,6.9
2022-11-10T07:40:24.211Z,6.9
2022-11-10T07:41:24.218Z,6.9
2022-11-10T07:42:24.209Z,6.9
2022-11-10T07:43:24.710Z,6.9
2022-11-10T07:44:24.261Z,7
2022-11-10T07:45:24.218Z,7
2022-11-10T07:46:24.221Z,7
2022-11-10T07:47:24.207Z,7
2022-11-10T07:48:24.215Z,7
2022-11-10T07:49:24.241Z,7
2022-11-10T07:50:24.219Z,7.1
2022-11-10T07:51:24.249Z,7.1
2022-11-10T07:52:24.220Z,7.1
2022-11-10T07:53:24.569Z,7.1
2022-11-10T07:54:24.204Z,7.1
2022-11-10T07:55:24.208Z,7.1
2022-11-10T07:56:24.234Z,7.1
2022-11-10T07:57:24.250Z,7.1
2022-11-10T07:58:24.220Z,7.1
2022-11-10T07:59:24.231Z,7.1
2022-11-10T08:00:24.207Z,7.2
2022-11-10T08:01:24.320Z,7.2
2022-11-10T08:02:24.227Z,7.2
2022-11-10T08:03:24.559Z,7.2
2022-11-10T08:04:24.217Z,7.2
2022-11-10T08:05:24.215Z,7.1
2022-11-10T08:06:24.235Z,7.2
2022-11-10T08:07:24.395Z,7.1
2022-11-10T08:08:24.221Z,7.1
2022-11-10T08:09:24.240Z,7.1
2022-11-10T08:10:24.211Z,7.1
2022-11-10T08:11:24.226Z,7.1
2022-11-10T08:12:24.216Z,7.1
2022-11-10T08:13:24.736Z,7.1
2022-11-10T08:14:24.230Z,7.1
2022-11-10T08:15:24.211Z,7.1
2022-11-10T08:16:24.223Z,7.2
2022-11-10T08:17:24.217Z,7.1
2022-11-10T08:18:24.211Z,7.2
2022-11-10T08:19:24.203Z,7.2
2022-11-10T08:20:24.207Z,7.2
2022-11-10T08:21:24.261Z,7.2
2022-11-10T08:22:24.216Z,7.2
2022-11-10T08:23:24.638Z,7.2
2022-11-10T08:24:24.229Z,7.2
2022-11-10T08:25:24.215Z,7.2
2022-11-10T08:26:24.226Z,7.2
2022-11-10T08:27:24.215Z,7.2
2022-11-10T08:28:24.266Z,7.2
2022-11-10T08:29:24.232Z,7.2
2022-11-10T08:30:24.210Z,7.2
2022-11-10T08:31:24.270Z,7.2
2022-11-10T08:32:24.223Z,7.3
2022-11-10T08:33:24.630Z,7.3
2022-11-10T08:34:24.217Z,7.3
2022-11-10T08:35:24.216Z,7.3
2022-11-10T08:36:24.230Z,7.3
2022-11-10T08:37:24.222Z,7.3
2022-11-10T08:38:24.240Z,7.3
2022-11-10T08:39:38.208Z,7.3
2022-11-10T08:40:24.265Z,7.3
2022-11-10T08:41:24.225Z,7.3
2022-11-10T08:42:24.216Z,7.3
2022-11-10T08:43:24.705Z,7.4
2022-11-10T08:44:24.217Z,7.4
2022-11-10T08:45:24.215Z,7.4
2022-11-10T08:46:24.233Z,7.4
2022-11-10T08:47:24.214Z,7.4
2022-11-10T08:48:24.229Z,7.4
2022-11-10T08:49:24.218Z,7.4
2022-11-10T08:50:24.254Z,7.4
2022-11-10T08:51:24.234Z,7.4
2022-11-10T08:52:24.212Z,7.5
2022-11-10T08:53:24.564Z,7.4
2022-11-10T08:54:24.247Z,7.5
2022-11-10T08:55:24.214Z,7.4
2022-11-10T08:56:24.242Z,7.5
2022-11-10T08:57:24.219Z,7.5
2022-11-10T08:58:24.223Z,7.5
2022-11-10T08:59:24.382Z,7.5
2022-11-10T09:00:24.297Z,7.4
2022-11-10T09:01:24.245Z,7.5
2022-11-10T09:02:24.213Z,7.5
2022-11-10T09:04:24.279Z,7.5
2022-11-10T09:05:24.216Z,7.5
2022-11-10T09:06:24.229Z,7.5
2022-11-10T09:07:24.241Z,7.5
2022-11-10T09:08:24.227Z,7.6
2022-11-10T09:09:24.228Z,7.6
2022-11-10T09:10:24.221Z,7.6
2022-11-10T09:11:24.258Z,7.6
2022-11-10T09:12:24.237Z,7.6
2022-11-10T09:13:29.337Z,7.6
2022-11-10T09:14:24.235Z,7.6
2022-11-10T09:15:24.234Z,7.6
2022-11-10T09:16:24.231Z,7.6
2022-11-10T09:17:24.240Z,7.6
2022-11-10T09:18:24.230Z,7.6
2022-11-10T09:19:24.288Z,7.6
2022-11-10T09:20:24.208Z,7.6
2022-11-10T09:21:24.258Z,7.7
2022-11-10T09:22:24.229Z,7.7
2022-11-10T09:23:24.605Z,7.6
2022-11-10T09:24:30.091Z,7.7
2022-11-10T09:25:24.236Z,7.7
2022-11-10T09:26:24.229Z,7.7
2022-11-10T09:27:24.225Z,7.7
2022-11-10T09:28:24.228Z,7.7
2022-11-10T09:29:24.245Z,7.7
2022-11-10T09:30:24.238Z,7.7
2022-11-10T09:31:24.366Z,7.8
2022-11-10T09:32:24.224Z,7.7
2022-11-10T09:33:24.596Z,7.7
2022-11-10T09:34:24.224Z,7.7
2022-11-10T09:35:24.231Z,7.7
2022-11-10T09:36:24.247Z,7.7
2022-11-10T09:37:24.243Z,7.7
2022-11-10T09:38:24.601Z,7.7
2022-11-10T09:39:24.238Z,7.7
2022-11-10T09:40:24.231Z,7.7
2022-11-10T09:41:24.237Z,7.8
2022-11-10T09:42:24.237Z,7.7
2022-11-10T09:43:24.377Z,7.7
2022-11-10T09:44:24.255Z,7.8
2022-11-10T09:45:24.233Z,7.7
2022-11-10T09:46:24.228Z,7.7
2022-11-10T09:47:50.409Z,7.7
2022-11-10T09:48:24.588Z,7.8
2022-11-10T09:49:24.250Z,7.8
2022-11-10T09:50:24.224Z,7.8
2022-11-10T09:51:24.289Z,7.8
2022-11-10T09:52:24.232Z,7.8
2022-11-10T09:53:24.227Z,7.8
2022-11-10T09:54:24.222Z,7.8
2022-11-10T09:55:24.233Z,7.8
2022-11-10T09:56:24.265Z,7.8
2022-11-10T09:57:24.223Z,7.7
2022-11-10T09:58:24.596Z,7.8
2022-11-10T09:59:24.235Z,7.8
2022-11-10T10:00:24.236Z,7.8
2022-11-10T10:01:24.305Z,7.8
2022-11-10T10:02:24.226Z,7.8
2022-11-10T10:03:24.239Z,7.7
2022-11-10T10:04:24.228Z,7.8
2022-11-10T10:05:24.220Z,7.7
2022-11-10T10:06:24.840Z,7.8
2022-11-10T10:07:24.341Z,7.8
2022-11-10T10:08:24.553Z,7.8
2022-11-10T10:09:24.226Z,7.8
2022-11-10T10:10:24.239Z,7.8
2022-11-10T10:11:24.277Z,7.8
2022-11-10T10:12:24.226Z,7.8
2022-11-10T10:13:24.247Z,7.8
2022-11-10T10:14:24.244Z,7.8
2022-11-10T10:15:25.896Z,7.8
2022-11-10T10:16:24.230Z,7.8
2022-11-10T10:17:26.901Z,7.8
2022-11-10T10:18:24.537Z,7.8
2022-11-10T10:19:24.230Z,7.8
2022-11-10T10:20:24.247Z,7.9
2022-11-10T10:21:24.272Z,7.8
2022-11-10T10:22:24.260Z,7.8
2022-11-10T10:23:46.781Z,7.8
2022-11-10T10:24:24.239Z,7.8
2022-11-10T10:25:24.246Z,7.8
2022-11-10T10:26:24.260Z,7.8
2022-11-10T10:27:24.239Z,7.8
2022-11-10T10:28:24.431Z,7.9
2022-11-10T10:29:24.250Z,7.9
2022-11-10T10:30:24.281Z,7.8
2022-11-10T10:31:24.258Z,7.9
2022-11-10T10:32:24.247Z,7.8
2022-11-10T10:33:24.248Z,7.9
2022-11-10T10:34:24.233Z,7.9
2022-11-10T10:35:24.230Z,7.9
2022-11-10T10:36:24.247Z,7.8
2022-11-10T10:37:24.236Z,7.9
2022-11-10T10:38:24.465Z,7.9
2022-11-10T10:39:24.229Z,7.9
2022-11-10T10:40:24.369Z,7.8
2022-11-10T10:41:24.283Z,7.8
2022-11-10T10:42:24.257Z,7.8
2022-11-10T10:43:24.240Z,7.8
2022-11-10T10:44:24.249Z,7.8
2022-11-10T10:45:24.311Z,7.8
2022-11-10T10:46:24.247Z,7.9
2022-11-10T10:47:24.255Z,7.8
2022-11-10T10:48:24.589Z,7.9
2022-11-10T10:49:29.068Z,7.7
2022-11-10T10:50:24.247Z,7.8
2022-11-10T10:51:24.251Z,7.7
2022-11-10T10:52:24.317Z,7.7
2022-11-10T10:53:24.238Z,7.7
2022-11-10T10:54:24.241Z,7.8
2022-11-10T10:55:24.224Z,7.7
2022-11-10T10:56:24.256Z,7.7
2022-11-10T10:57:24.234Z,7.7
2022-11-10T10:58:24.681Z,7.7
2022-11-10T10:59:24.234Z,7.7
2022-11-10T11:00:24.290Z,7.7
2022-11-10T11:01:24.316Z,7.7
2022-11-10T11:02:24.245Z,7.7
2022-11-10T11:03:24.287Z,7.7
2022-11-10T11:04:24.229Z,7.6
2022-11-10T11:05:24.228Z,7.7
2022-11-10T11:06:24.246Z,7.7
2022-11-10T11:07:24.243Z,7.7
2022-11-10T11:08:24.620Z,7.7
2022-11-10T11:09:24.235Z,7.6
2022-11-10T11:10:24.246Z,7.6
2022-11-10T11:11:24.288Z,7.6
2022-11-10T11:12:24.238Z,7.7
2022-11-10T11:13:24.254Z,7.7
2022-11-10T11:14:24.254Z,7.5
2022-11-10T11:15:24.240Z,7.7
2022-11-10T11:16:24.258Z,7.5
2022-11-10T11:17:24.257Z,7.5
2022-11-10T11:18:24.462Z,7.5
2022-11-10T11:19:24.289Z,7.5
2022-11-10T11:20:24.252Z,7.6
2022-11-10T11:21:24.253Z,7.6
2022-11-10T11:22:24.242Z,7.6
2022-11-10T11:23:24.244Z,7.6
2022-11-10T11:24:24.250Z,7.6
2022-11-10T11:25:24.250Z,7.6
2022-11-10T11:26:24.248Z,7.7
2022-11-10T11:27:24.236Z,7.6
2022-11-10T11:28:24.572Z,7.6
2022-11-10T11:29:24.243Z,7.7
2022-11-10T11:30:24.248Z,7.5
2022-11-10T11:31:24.291Z,7.5
2022-11-10T11:32:24.256Z,7.6
2022-11-10T11:33:24.253Z,7.7
2022-11-10T11:34:24.274Z,7.6
2022-11-10T11:35:24.236Z,7.6
2022-11-10T11:36:24.277Z,7.6
2022-11-10T11:37:24.235Z,7.7
2022-11-10T11:38:24.430Z,7.7
2022-11-10T11:39:24.245Z,7.7
2022-11-10T11:40:24.256Z,7.7
2022-11-10T11:41:24.318Z,7.7
2022-11-10T11:42:24.241Z,7.7
2022-11-10T11:43:24.244Z,7.6
2022-11-10T11:44:24.245Z,7.5
2022-11-10T11:45:24.246Z,7.6
2022-11-10T11:46:24.277Z,7.7
2022-11-10T11:47:24.243Z,7.7
2022-11-10T11:48:24.564Z,7.7
2022-11-10T11:49:24.263Z,7.7
2022-11-10T11:50:24.241Z,7.7
2022-11-10T11:51:24.264Z,7.7
2022-11-10T11:52:24.258Z,7.7
2022-11-10T11:53:24.244Z,7.7
2022-11-10T11:54:24.232Z,7.6
2022-11-10T11:55:24.242Z,7.6
2022-11-10T11:56:24.288Z,7.5
2022-11-10T11:57:24.232Z,7.6
2022-11-10T11:58:24.725Z,7.5
2022-11-10T11:59:24.267Z,7.6
2022-11-10T12:00:24.243Z,7.6
2022-11-10T12:01:24.280Z,7.5
2022-11-10T12:02:24.278Z,7.6
2022-11-10T12:03:24.253Z,7.5
2022-11-10T12:04:24.251Z,7.5
2022-11-10T12:05:24.268Z,7.6
2022-11-10T12:06:24.264Z,7.6
2022-11-10T12:07:24.253Z,7.6
2022-11-10T12:08:25.404Z,7.5
2022-11-10T12:09:24.252Z,7.5
2022-11-10T12:10:24.243Z,7.5
2022-11-10T12:11:24.238Z,7.5
2022-11-10T12:12:24.246Z,7.5
2022-11-10T12:13:24.249Z,7.6
2022-11-10T12:14:24.255Z,7.4
2022-11-10T12:15:24.273Z,7.5
2022-11-10T12:16:24.287Z,7.6
2022-11-10T12:17:24.238Z,7.6
2022-11-10T12:18:24.463Z,7.5
2022-11-10T12:19:24.258Z,7.6
2022-11-10T12:20:24.261Z,7.5
2022-11-10T12:21:24.283Z,7.6
2022-11-10T12:23:24.257Z,7.5
2022-11-10T12:24:24.234Z,7.5
2022-11-10T12:25:24.235Z,7.6
2022-11-10T12:26:24.261Z,7.6
2022-11-10T12:27:24.250Z,7.6
2022-11-10T12:28:24.527Z,7.6
2022-11-10T12:29:24.259Z,7.6
2022-11-10T12:30:24.250Z,7.5
2022-11-10T12:31:24.254Z,7.6
2022-11-10T12:32:24.255Z,7.5
2022-11-10T12:33:24.316Z,7.5
2022-11-10T12:34:24.255Z,7.6
2022-11-10T12:35:24.247Z,7.6
2022-11-10T12:36:24.300Z,7.6
2022-11-10T12:37:27.651Z,7.5
2022-11-10T12:38:24.559Z,7.5
2022-11-10T12:39:24.250Z,7.5
2022-11-10T12:40:24.254Z,7.5
2022-11-10T12:41:24.262Z,7.6
2022-11-10T12:42:24.244Z,7.5
2022-11-10T12:43:24.646Z,7.5
2022-11-10T12:44:24.264Z,7.5
2022-11-10T12:45:24.242Z,7.5
2022-11-10T12:46:24.285Z,7.4
2022-11-10T12:47:24.251Z,7.5
2022-11-10T12:48:24.553Z,7.5
2022-11-10T12:49:24.271Z,7.6
2022-11-10T12:50:24.280Z,7.6
2022-11-10T12:51:24.280Z,7.7
2022-11-10T12:52:24.256Z,7.7
2022-11-10T12:53:24.256Z,7.7
2022-11-10T12:54:24.255Z,7.6
2022-11-10T12:55:24.243Z,7.5
2022-11-10T12:56:24.271Z,7.6
2022-11-10T12:57:24.260Z,7.5
2022-11-10T12:58:24.758Z,7.5
2022-11-10T12:59:24.270Z,7.6
2022-11-10T13:00:28.200Z,7.5
2022-11-10T13:01:24.317Z,7.5
2022-11-10T13:02:24.269Z,7.5
2022-11-10T13:03:24.245Z,7.5
2022-11-10T13:04:24.267Z,7.5
2022-11-10T13:05:24.326Z,7.5
2022-11-10T13:06:24.284Z,7.6
2022-11-10T13:07:24.363Z,7.5
2022-11-10T13:08:24.576Z,7.5
2022-11-10T13:09:24.268Z,7.5
2022-11-10T13:10:24.264Z,7.5
2022-11-10T13:11:24.271Z,7.6
2022-11-10T13:12:24.254Z,7.6
2022-11-10T13:13:24.255Z,7.6
2022-11-10T13:14:24.292Z,7.6
2022-11-10T13:15:24.262Z,7.6
2022-11-10T13:16:24.254Z,7.6
2022-11-10T13:17:24.251Z,7.5
2022-11-10T13:18:24.465Z,7.5
2022-11-10T13:19:24.260Z,7.5
2022-11-10T13:20:31.237Z,7.5
2022-11-10T13:21:24.275Z,7.5
2022-11-10T13:22:25.426Z,7.6
2022-11-10T13:23:24.258Z,7.5
2022-11-10T13:24:24.327Z,7.5
2022-11-10T13:25:24.258Z,7.4
2022-11-10T13:26:24.260Z,7.5
2022-11-10T13:27:24.257Z,7.6
2022-11-10T13:28:24.584Z,7.6
2022-11-10T13:29:24.281Z,7.6
2022-11-10T13:30:24.264Z,7.5
2022-11-10T13:31:24.263Z,7.5
2022-11-10T13:32:24.269Z,7.4
2022-11-10T13:33:24.265Z,7.3
2022-11-10T13:34:24.273Z,7.4
2022-11-10T13:35:24.251Z,7.5
2022-11-10T13:36:24.271Z,7.4
2022-11-10T13:37:24.267Z,7.4
2022-11-10T13:38:24.508Z,7.4
2022-11-10T13:39:24.279Z,7.4
2022-11-10T13:40:24.273Z,7.4
2022-11-10T13:41:24.259Z,7.5
2022-11-10T13:42:24.293Z,7.5
2022-11-10T13:43:24.267Z,7.5
2022-11-10T13:44:24.273Z,7.5
2022-11-10T13:45:24.287Z,7.5
2022-11-10T13:46:24.280Z,7.4
2022-11-10T13:47:24.255Z,7.4
2022-11-10T13:48:24.580Z,7.5
2022-11-10T13:49:24.264Z,7.5
2022-11-10T13:50:24.278Z,7.5
2022-11-10T13:51:24.299Z,7.5
2022-11-10T13:52:24.308Z,7.5
2022-11-10T13:53:24.269Z,7.5
2022-11-10T13:54:24.260Z,7.5
2022-11-10T13:55:24.269Z,7.5
2022-11-10T13:56:24.273Z,7.5
2022-11-10T13:58:24.636Z,7.5